DADOS DO TEMPO

HOJE
Time Temp. Dewp. Hum. Direção Velocidade Wind gust Bar. 1h Prec. 24h Prec.
00:19 5.8 4 88 0 0 983.1 0.0000 0.0000
00:29 5.8 4.1 89 0 0 983.4 0.0000 0.0000
00:39 5.9 4.2 89 0 0 983.3 0.0000 0.0000
00:50 6 4.3 89 0 0 983.2 0.0000 0.0000
01:00 6 4.5 90 0 0 983 0.0000 0.0000
01:09 6 4.5 90 0 0 982.6 0.0000 0.0000
01:20 6 4.5 90 0 0 982.5 0.0000 0.0000
01:35 6 4.6 91 0 0 982.5 0.1010 0.1000
01:44 6 4.6 91 0 0 982.1 0.3030 0.3000
01:55 5.9 4.7 92 0 0 981.9 0.4040 0.4000
02:05 5.9 4.7 92 0 0 981.6 0.9090 0.9000
02:15 5.8 4.8 93 0 0 981.2 1.3130 1.3000
02:25 5.8 4.8 93 0 0 981 1.6160 1.6000
02:35 5.8 4.9 94 0 0 980.7 1.9190 2.0000
02:45 5.7 4.8 94 0 0 980.4 2.1210 2.4000
02:55 5.7 4.8 94 0 0 980.1 2.2220 2.6000
03:05 5.6 4.7 94 0 0 979.9 2.0200 2.9000
03:16 5.6 4.9 95 0 0 979.7 1.8180 3.1000
03:26 5.6 4.9 95 0 0 979.5 1.6160 3.2000
03:35 5.6 4.9 95 0 0 979.4 1.4140 3.4000
03:46 5.5 4.9 96 0 0 979.6 1.0100 3.6000
03:56 5.5 4.9 96 0 0 980.1 1.0100 3.9000
04:06 5.6 5 96 0 0 980.6 1.2120 4.3000
04:16 5.6 5 96 0 0 981.1 1.2120 4.4000
04:26 5.7 5.3 97 0 0 981.8 1.0100 4.4000
04:36 5.7 5.3 97 0 0 982.5 0.9090 4.5000
04:46 5.8 5.4 97 0 0 983 0.6060 4.5000
04:57 5.8 5.4 97 0 0 983.3 0.2020 4.5000
05:07 5.9 5.3 96 0 0 983.5 0.1010 4.5000
05:16 5.9 5.3 96 0 0 983.5 0.1010 4.5000
05:27 5.9 5.2 95 0 0 984.1 0.0000 4.5000
05:37 5.8 5.1 95 0 0 984.7 0.0000 4.5000
05:47 5.6 4.7 94 0 0 985 0.0000 4.5000
05:57 5.5 4.6 94 0 0 985.5 0.0000 4.5000
06:07 5.3 4.4 94 0 0 985.9 0.0000 4.5000
06:17 5.2 4.3 94 0 0 986.2 0.0000 4.5000
06:27 5.1 4.2 94 0 0 986.3 0.0000 4.5000
06:37 5 4.1 94 0 0 986.6 0.0000 4.5000
06:48 4.9 4.2 95 0 0 987 0.0000 4.5000
06:58 5 4.3 95 0 0 987.2 0.0000 4.5000
07:07 5.2 4.5 95 0 0 987.4 0.0000 4.5000
07:18 5.3 4.6 95 0 0 987.4 0.1010 4.6000
07:28 5.4 4.7 95 0 0 987.5 0.1010 4.6000
07:38 5.5 4.8 95 0 0 987.7 0.1010 4.6000
07:48 5.5 4.8 95 0 0 988.1 0.1010 4.6000
07:58 5.7 5 95 0 0 988.3 0.1010 4.6000
08:08 5.9 5.2 95 0 0 988.6 0.1010 4.7000
08:16 6 5.3 95 0 0 988.9 0.3030 4.9000
08:26 6.1 5.4 95 0 0 989.1 0.5050 5.2000
08:36 6.1 5.4 95 0 0 989.2 0.8080 5.5000
08:46 6.1 5.2 94 0 0 989.5 0.8080 5.5000
08:56 6.2 5.3 94 0 0 990 0.8080 5.5000
09:06 6.3 5.3 93 0 0 990.3 0.6060 5.6000
09:16 6.4 5.2 92 0 0 990.5 0.4040 5.6000
09:27 6.5 5.1 91 0 0 990.8 0.1010 5.6000
09:37 6.9 5.4 90 0 0 991.3 0.1010 5.6000
09:46 7.2 5.3 88 0 0 991.4 0.1010 5.6000
09:57 7.6 5.2 85 0 0 991.7 0.0000 5.6000
10:07 7.8 5.1 83 0 0 991.8 0.0000 5.6000
10:17 7.9 4.8 81 0 0 991.9 0.0000 5.6000
10:27 8.1 4.7 79 0 0 992 0.0000 5.6000
10:38 8.2 4.4 77 0 0 992.4 0.0000 5.6000
10:47 8.2 4.4 77 0 0 992.7 0.0000 5.6000
10:57 8.1 4.3 77 0 0 992.4 0.0000 5.6000
11:07 8 4.2 77 0 0 992.6 0.0000 5.6000
11:18 7.9 4.1 77 0 0 992.7 0.0000 5.6000
11:28 7.9 4.3 78 0 0 992.8 0.0000 5.6000
11:38 8 4.4 78 0 0 992.8 0.0000 5.6000
11:48 8.1 4.7 79 0 0 992.7 0.0000 5.6000
11:58 8.2 4.6 78 0 0 992.7 0.0000 5.6000
12:08 8.2 4.6 78 0 0 992.4 0.0000 5.6000
12:18 8.1 4.5 78 0 0 992.5 0.0000 5.6000
12:29 8.1 4.5 78 0 0 992.6 0.0000 5.6000
12:38 8 4.6 79 0 0 992.6 0.0000 5.6000
12:48 7.9 4.8 81 0 0 992.8 0.1010 5.7000
12:59 7.8 5.1 83 0 0 992.9 0.3030 5.9000
13:09 7.6 5.2 85 0 0 992.8 0.4040 6.0000
13:19 7.4 5.4 87 0 0 992.8 0.4040 6.0000
13:28 7.3 5.4 88 0 0 992.6 0.4040 6.0000
13:39 7.2 5.3 88 0 0 992.3 0.4040 6.0000
13:49 7.2 5.3 88 0 0 992 0.2020 6.0000
13:59 7.1 5.4 89 0 0 992.2 0.2020 6.1000
14:09 7.1 5.6 90 0 0 992.3 0.5050 6.5000
14:19 7 5.6 91 0 0 992.6 0.9090 6.9000
14:29 7.1 5.9 92 0 0 992.1 0.9090 6.9000
14:39 7.2 5.8 91 0 0 992.2 0.9090 6.9000
14:50 7.3 5.9 91 0 0 992.2 0.8080 6.9000
15:00 7.6 5.9 89 0 0 992.4 0.5050 6.9000
15:10 8 6 87 0 0 992.7 0.2020 6.9000
15:20 8 5.5 84 0 0 993.7 0.2020 7.1000
15:30 7.7 5.2 84 0 0 993.6 0.2020 7.1000
15:40 7.5 4.8 83 0 0 994 0.2020 7.1000
15:50 7.4 4.5 82 0 0 994.4 0.2020 7.1000
16:01 7.3 4.1 80 0 0 994.7 0.2020 7.1000
16:10 7.3 3.5 77 0 0 995 0.2020 7.1000
16:20 7.2 3.1 75 0 0 995.2 0.0000 7.1000
16:30 7.1 3 75 0 0 995.5 0.0000 7.1000
16:41 6.8 3.1 77 0 0 995.8 0.0000 7.1000
16:51 6.7 3.3 79 0 0 996.1 0.0000 7.1000
17:01 6.8 3.6 80 0 0 996.3 0.0000 7.1000
17:11 6.8 3.6 80 0 0 996.5 0.0000 7.1000
17:21 6.8 3.6 80 0 0 996.6 0.0000 7.1000
17:31 6.8 3.2 78 0 0 996.8 0.0000 7.1000
17:41 6.8 3.1 77 0 0 997 0.0000 7.1000
17:52 6.8 2.9 76 0 0 997 0.0000 7.1000
18:01 6.6 2.7 76 0 0 997.2 0.0000 7.1000
18:11 6.5 2.6 76 0 0 997.4 0.0000 7.1000
18:22 6.4 2.7 77 0 0 997.6 0.0000 7.1000
18:32 6.2 2.5 77 0 0 997.8 0.0000 7.1000
18:42 6 2.5 78 0 0 997.9 0.0000 7.1000
18:52 5.8 2.3 78 0 0 998 0.0000 7.1000
19:02 5.7 2.3 79 0 0 998.1 0.0000 7.1000
19:12 5.5 2.2 79 0 0 998.3 0.0000 7.1000
19:22 5.4 2.4 81 0 0 998.4 0.0000 7.1000
19:32 5.2 2.2 81 0 0 998.4 0.0000 7.1000
19:43 5 2 81 0 0 998.3 0.0000 7.1000
19:52 4.9 2.1 82 0 0 998.1 0.0000 7.1000
20:02 4.8 2.2 83 0 0 998.2 0.0000 7.1000
20:13 4.8 2.3 84 0 0 998.2 0.0000 7.1000
20:23 4.9 2.4 84 0 0 998.3 0.0000 7.1000
20:33 5 2.7 85 0 0 998.4 0.0000 7.1000
20:43 5.1 2.8 85 0 0 998.4 0.0000 7.1000
20:53 5.1 2.8 85 0 0 998.2 0.0000 7.1000
21:03 5.2 2.9 85 0 0 998 0.0000 7.1000
21:13 5.2 2.9 85 0 0 998 0.0000 7.1000
21:23 5.3 3 85 0 0 997.8 0.0000 7.1000
21:34 5.4 3.2 86 0 0 997.8 0.0000 7.1000
21:43 5.5 3.3 86 0 0 997.5 0.0000 7.1000

ESTATÍSTICAS DO DIA

2019-12-14
TEMPERATURA
MÉDIA
6.4
MÁXIMO
8.2
10:38
MÍNIMO
4.8
20:02
PRESSÃO
MÉDIA
990.4
MÁXIMO
998.4
19:22
MÍNIMO
979.4
03:35
PONTO DE ORVALHO
MÉDIA
4.3
MÁXIMO
6.0
15:10
MÍNIMO
2.0
19:43
UMIDADE
MÉDIA
87
MÁXIMO
97
04:26
MÍNIMO
75
16:20
VELOCIDADE DOS VENTOS
MÉDIA
0.0
MÁXIMO
0.0
20:47
WIND GUST
MÉDIA
0.0
MÁXIMO
0.0
20:47
DIREÇÃO DOS VENTOS
PREDOMINANTE
%
PRECIPITAÇÃO
PRECIPITAÇÃO HORÁRIA
2.2
PRECIPITAÇÃO DIÁRIA
7.1
TEMPERATURA (°C)
MÍNIMO
4.8
MÁXIMO
8.2
MÉDIA
6.4
PRESSÃO (hpa)
MÍNIMO
979.4
MÁXIMO
998.4
MÉDIA
990.4
DEVICE